createdAt,value
2019-05-02T00:00:15.080Z,11.20
2019-05-02T00:02:41.888Z,10.87
2019-05-02T00:05:09.250Z,11.67
2019-05-02T00:07:36.120Z,11.67
2019-05-02T00:10:07.218Z,12.60
2019-05-02T00:12:34.080Z,10.40
2019-05-02T00:15:01.894Z,9.90
2019-05-02T00:17:31.089Z,8.60
2019-05-02T00:19:57.540Z,8.13
2019-05-02T00:22:24.548Z,8.63
2019-05-02T00:24:51.174Z,8.83
2019-05-02T00:27:18.149Z,7.93
2019-05-02T00:29:44.676Z,7.27
2019-05-02T00:32:11.551Z,8.30
2019-05-02T00:34:38.114Z,7.40
2019-05-02T00:37:04.947Z,6.90
2019-05-02T00:39:31.744Z,6.40
2019-05-02T00:42:11.806Z,6.80
2019-05-02T00:44:27.049Z,7.00
2019-05-02T00:46:55.487Z,6.77
2019-05-02T00:49:22.392Z,7.00
2019-05-02T00:51:48.927Z,7.30
2019-05-02T00:54:19.246Z,7.13
2019-05-02T00:56:45.397Z,6.63
2019-05-02T00:59:12.062Z,7.00
2019-05-02T01:01:43.474Z,7.20
2019-05-02T01:04:14.777Z,6.80
2019-05-02T01:06:44.756Z,7.80
2019-05-02T01:09:10.884Z,7.77
2019-05-02T01:11:38.023Z,7.50
2019-05-02T01:14:04.841Z,8.90
2019-05-02T01:16:31.382Z,8.67
2019-05-02T01:18:57.913Z,8.37
2019-05-02T01:21:24.665Z,9.00
2019-05-02T01:23:51.294Z,9.17
2019-05-02T01:26:18.864Z,8.73
2019-05-02T01:28:55.557Z,9.30
2019-05-02T01:31:27.425Z,10.20
2019-05-02T01:34:12.999Z,10.83
2019-05-02T01:36:59.547Z,9.83
2019-05-02T01:39:26.215Z,10.00
2019-05-02T01:41:52.841Z,9.60
2019-05-02T01:44:19.513Z,8.93
2019-05-02T01:46:46.093Z,9.73
2019-05-02T01:49:16.805Z,9.37
2019-05-02T01:51:41.978Z,9.63
2019-05-02T01:54:11.442Z,9.53
2019-05-02T01:56:38.155Z,9.33
2019-05-02T01:59:04.777Z,9.27
2019-05-02T02:01:31.553Z,10.83
2019-05-02T02:03:58.295Z,10.83
2019-05-02T02:06:25.365Z,11.10
2019-05-02T02:08:52.949Z,10.03
2019-05-02T02:11:20.126Z,10.70
2019-05-02T02:13:46.745Z,10.77
2019-05-02T02:16:13.373Z,9.60
2019-05-02T02:19:04.059Z,10.63
2019-05-02T02:21:31.210Z,10.67
2019-05-02T02:23:59.754Z,11.77
2019-05-02T02:26:28.028Z,10.60
2019-05-02T02:28:56.013Z,10.83
2019-05-02T02:31:23.742Z,10.50
2019-05-02T02:33:50.421Z,10.80
2019-05-02T02:36:30.279Z,10.20
2019-05-02T02:38:47.041Z,12.00
2019-05-02T02:41:15.098Z,10.90
2019-05-02T02:43:44.755Z,10.70
2019-05-02T02:46:16.239Z,9.93
2019-05-02T02:48:42.989Z,10.40
2019-05-02T02:51:09.816Z,11.30
2019-05-02T02:53:44.177Z,11.47
2019-05-02T02:56:11.854Z,12.07
2019-05-02T02:58:45.491Z,11.93
2019-05-02T03:01:07.685Z,11.87
2019-05-02T03:03:35.448Z,11.50
2019-05-02T03:06:05.866Z,13.10
2019-05-02T03:08:31.428Z,12.27
2019-05-02T03:10:59.458Z,11.63
2019-05-02T03:13:29.681Z,12.07
2019-05-02T03:16:00.545Z,13.30
2019-05-02T03:18:39.851Z,12.90
2019-05-02T03:20:57.019Z,13.50
2019-05-02T03:23:24.210Z,13.07
2019-05-02T03:25:51.659Z,13.00
2019-05-02T03:28:20.924Z,13.07
2019-05-02T03:30:47.213Z,12.30
2019-05-02T03:33:13.905Z,13.00
2019-05-02T03:35:43.771Z,12.77
2019-05-02T03:38:10.727Z,13.23
2019-05-02T03:40:38.970Z,13.47
2019-05-02T03:43:06.444Z,13.27
2019-05-02T03:45:40.307Z,13.07
2019-05-02T03:48:02.031Z,13.30
2019-05-02T03:50:32.892Z,15.37
2019-05-02T03:52:58.775Z,14.63
2019-05-02T03:55:30.873Z,14.90
2019-05-02T03:57:53.930Z,15.17
2019-05-02T04:00:23.924Z,15.80
2019-05-02T04:02:59.270Z,16.40
2019-05-02T04:05:18.466Z,16.73
2019-05-02T04:07:46.766Z,16.23
2019-05-02T04:10:36.014Z,17.33
2019-05-02T04:13:05.686Z,18.30
2019-05-02T04:15:35.187Z,18.90
2019-05-02T04:18:08.605Z,18.77
2019-05-02T04:20:31.597Z,17.83
2019-05-02T04:22:59.463Z,18.50
2019-05-02T04:25:27.873Z,19.80
2019-05-02T04:27:58.358Z,19.40
2019-05-02T04:30:26.995Z,19.17
2019-05-02T04:32:55.785Z,19.03
2019-05-02T04:35:22.089Z,21.07
2019-05-02T04:37:50.158Z,21.30
2019-05-02T04:40:18.464Z,22.60
2019-05-02T04:42:51.222Z,20.77
2019-05-02T04:45:26.436Z,22.50
2019-05-02T04:47:57.499Z,21.67
2019-05-02T04:50:18.267Z,23.63
2019-05-02T04:52:48.241Z,21.80
2019-05-02T04:55:21.138Z,22.13
2019-05-02T04:57:46.765Z,22.40
2019-05-02T05:00:11.484Z,21.43
2019-05-02T05:02:37.306Z,22.30
2019-05-02T05:05:07.953Z,23.17
2019-05-02T05:07:41.050Z,21.73
2019-05-02T05:10:04.841Z,21.80
2019-05-02T05:12:32.548Z,22.80
2019-05-02T05:15:00.439Z,19.93
2019-05-02T05:17:32.771Z,21.27
2019-05-02T05:19:57.381Z,22.20
2019-05-02T05:22:24.356Z,20.80
2019-05-02T05:24:53.630Z,23.03
2019-05-02T05:27:22.780Z,20.90
2019-05-02T05:29:53.667Z,20.30
2019-05-02T05:32:17.984Z,20.00
2019-05-02T05:34:44.770Z,21.33
2019-05-02T05:37:13.411Z,21.30
2019-05-02T05:39:43.044Z,19.77
2019-05-02T05:42:10.663Z,19.40
2019-05-02T05:44:39.915Z,21.07
2019-05-02T05:47:07.358Z,20.87
2019-05-02T05:49:34.077Z,20.30
2019-05-02T05:52:03.725Z,20.33
2019-05-02T05:54:32.988Z,20.27
2019-05-02T05:56:58.245Z,19.43
2019-05-02T05:59:28.001Z,18.57
2019-05-02T06:01:53.651Z,21.00
2019-05-02T06:04:23.596Z,18.27
2019-05-02T06:06:49.152Z,19.77
2019-05-02T06:09:15.806Z,20.23
2019-05-02T06:11:42.437Z,18.80
2019-05-02T06:14:09.090Z,19.10
2019-05-02T06:16:35.742Z,18.70
2019-05-02T06:19:03.006Z,19.90
2019-05-02T06:21:30.437Z,19.30
2019-05-02T06:23:57.098Z,19.10
2019-05-02T06:26:23.699Z,18.70
2019-05-02T06:28:50.249Z,16.73
2019-05-02T06:31:17.287Z,19.17
2019-05-02T06:33:43.965Z,19.23
2019-05-02T06:36:10.594Z,18.37
2019-05-02T06:38:38.852Z,19.47
2019-05-02T06:41:05.799Z,15.63
2019-05-02T06:43:32.432Z,18.00
2019-05-02T06:45:59.108Z,16.20
2019-05-02T06:48:25.633Z,16.27
2019-05-02T06:50:53.506Z,16.60
2019-05-02T06:53:20.145Z,17.07
2019-05-02T06:55:46.728Z,19.90
2019-05-02T06:58:13.596Z,18.87
2019-05-02T07:00:56.682Z,20.57
2019-05-02T07:03:10.327Z,18.20
2019-05-02T07:05:37.266Z,20.03
2019-05-02T07:08:06.669Z,21.00
2019-05-02T07:10:44.128Z,19.87
2019-05-02T07:13:10.023Z,21.87
2019-05-02T07:15:48.459Z,22.10
2019-05-02T07:18:17.261Z,21.60
2019-05-02T07:20:43.934Z,20.27
2019-05-02T07:23:15.868Z,20.10
2019-05-02T07:25:44.017Z,19.50
2019-05-02T07:28:10.636Z,19.90
2019-05-02T07:30:37.821Z,20.17
2019-05-02T07:33:04.443Z,18.90
2019-05-02T07:35:31.014Z,18.50
2019-05-02T07:37:57.655Z,18.23
2019-05-02T07:40:24.317Z,16.40
2019-05-02T07:42:51.349Z,15.07
2019-05-02T07:45:18.273Z,16.97
2019-05-02T07:47:44.853Z,16.17
2019-05-02T07:50:12.326Z,16.03
2019-05-02T07:52:41.363Z,17.83
2019-05-02T07:55:10.055Z,17.40
2019-05-02T07:57:36.685Z,14.77
2019-05-02T08:00:07.050Z,16.97
2019-05-02T08:02:33.743Z,17.03
2019-05-02T08:05:00.458Z,17.50
2019-05-02T08:07:34.169Z,16.60
2019-05-02T08:09:57.847Z,15.00
2019-05-02T08:12:24.401Z,16.53
2019-05-02T08:14:50.942Z,18.20
2019-05-02T08:17:19.304Z,16.63
2019-05-02T08:19:45.843Z,17.53
2019-05-02T08:22:13.839Z,17.30
2019-05-02T08:24:41.829Z,16.90
2019-05-02T08:27:10.287Z,18.73
2019-05-02T08:29:38.528Z,17.17
2019-05-02T08:32:06.100Z,16.03
2019-05-02T08:34:32.914Z,16.33
2019-05-02T08:37:03.149Z,16.80
2019-05-02T08:39:33.080Z,16.27
2019-05-02T08:41:59.358Z,16.43
2019-05-02T08:44:26.186Z,14.90
2019-05-02T08:46:53.287Z,16.10
2019-05-02T08:49:20.168Z,16.30
2019-05-02T08:51:46.853Z,15.00
2019-05-02T08:54:13.490Z,15.70
2019-05-02T08:56:40.418Z,17.17
2019-05-02T08:59:07.015Z,15.40
2019-05-02T09:01:35.296Z,16.97
2019-05-02T09:04:02.157Z,14.87
2019-05-02T09:06:28.689Z,17.30
2019-05-02T09:08:55.340Z,16.73
2019-05-02T09:11:22.381Z,17.20
2019-05-02T09:13:49.066Z,16.60
2019-05-02T09:16:15.674Z,15.60
2019-05-02T09:18:50.514Z,14.83
2019-05-02T09:21:12.544Z,16.17
2019-05-02T09:23:41.292Z,14.73
2019-05-02T09:26:07.841Z,14.20
2019-05-02T09:28:34.396Z,13.20
2019-05-02T09:31:04.995Z,15.03
2019-05-02T09:33:29.490Z,13.90
2019-05-02T09:35:56.012Z,15.10
2019-05-02T09:38:22.677Z,14.70
2019-05-02T09:40:53.738Z,13.60
2019-05-02T09:43:17.889Z,12.17
2019-05-02T09:45:44.626Z,14.30
2019-05-02T09:48:12.542Z,13.03
2019-05-02T09:50:39.322Z,13.90
2019-05-02T09:53:05.877Z,13.77
2019-05-02T09:55:32.611Z,13.77
2019-05-02T09:58:00.030Z,11.90
2019-05-02T10:00:36.228Z,11.80
2019-05-02T10:03:04.121Z,12.00
2019-05-02T10:05:32.268Z,11.97
2019-05-02T10:08:03.159Z,12.60
2019-05-02T10:10:28.643Z,11.00
2019-05-02T10:12:55.314Z,12.60
2019-05-02T10:15:23.137Z,11.40
2019-05-02T10:17:51.905Z,12.83
2019-05-02T10:20:23.584Z,11.40
2019-05-02T10:22:48.724Z,10.73
2019-05-02T10:25:15.265Z,11.97
2019-05-02T10:27:46.012Z,10.50
2019-05-02T10:30:15.618Z,12.00
2019-05-02T10:32:42.769Z,9.57
2019-05-02T10:35:12.899Z,10.20
2019-05-02T10:37:39.906Z,10.27
2019-05-02T10:40:15.453Z,9.73
2019-05-02T10:42:37.013Z,10.30
2019-05-02T10:45:07.501Z,10.00
2019-05-02T10:47:36.511Z,11.20
2019-05-02T10:50:15.533Z,11.73
2019-05-02T10:52:43.765Z,10.30
2019-05-02T10:55:12.768Z,9.73
2019-05-02T10:57:39.412Z,10.23
2019-05-02T11:00:11.975Z,10.43
2019-05-02T11:02:57.179Z,9.90
2019-05-02T11:05:26.617Z,9.93
2019-05-02T11:07:56.978Z,9.40
2019-05-02T11:10:21.854Z,10.27
2019-05-02T11:12:52.510Z,10.23
2019-05-02T11:15:37.814Z,9.97
2019-05-02T11:18:04.749Z,10.73
2019-05-02T11:20:31.947Z,11.33
2019-05-02T11:22:58.545Z,11.30
2019-05-02T11:25:25.216Z,12.17
2019-05-02T11:27:52.521Z,14.70
2019-05-02T11:30:22.293Z,15.40
2019-05-02T11:32:47.752Z,14.90
2019-05-02T11:35:14.421Z,16.07
2019-05-02T11:37:42.264Z,15.60
2019-05-02T11:40:09.119Z,14.30
2019-05-02T11:42:35.651Z,14.70
2019-05-02T11:45:04.102Z,12.33
2019-05-02T11:47:32.713Z,13.20
2019-05-02T11:49:59.053Z,13.10
2019-05-02T11:52:27.580Z,11.70
2019-05-02T11:54:53.895Z,11.97
2019-05-02T11:57:28.322Z,11.73
2019-05-02T11:59:49.014Z,15.63
2019-05-02T12:02:22.058Z,16.53
2019-05-02T12:04:52.493Z,17.57
2019-05-02T12:07:17.828Z,16.03
2019-05-02T12:09:52.090Z,18.40
2019-05-02T12:12:15.593Z,18.33
2019-05-02T12:14:41.866Z,17.13
2019-05-02T12:17:08.738Z,18.90
2019-05-02T12:19:35.365Z,19.17
2019-05-02T12:22:02.751Z,20.27
2019-05-02T12:24:31.867Z,19.90
2019-05-02T12:27:02.400Z,19.13
2019-05-02T12:29:29.786Z,16.20
2019-05-02T12:31:56.954Z,15.73
2019-05-02T12:34:25.181Z,15.10
2019-05-02T12:36:53.446Z,14.73
2019-05-02T12:39:22.179Z,14.93
2019-05-02T12:41:49.403Z,13.47
2019-05-02T12:44:16.292Z,14.93
2019-05-02T12:46:44.576Z,14.80
2019-05-02T12:49:24.492Z,17.20
2019-05-02T12:51:42.865Z,20.90
2019-05-02T12:54:09.649Z,17.80
2019-05-02T12:56:37.954Z,23.33
2019-05-02T12:59:04.699Z,23.43
2019-05-02T13:01:33.293Z,23.90
2019-05-02T13:04:05.910Z,23.60
2019-05-02T13:06:36.763Z,22.20
2019-05-02T13:09:07.128Z,22.20
2019-05-02T13:11:36.744Z,21.90
2019-05-02T13:14:15.739Z,21.23
2019-05-02T13:16:34.785Z,21.70
2019-05-02T13:19:05.918Z,24.17
2019-05-02T13:21:50.226Z,26.67
2019-05-02T13:24:32.439Z,27.13
2019-05-02T13:27:01.770Z,29.40
2019-05-02T13:29:32.033Z,31.33
2019-05-02T13:32:16.914Z,30.57
2019-05-02T13:34:57.206Z,29.90
2019-05-02T13:37:24.822Z,28.50
2019-05-02T13:39:56.768Z,29.10
2019-05-02T13:42:23.431Z,27.43
2019-05-02T13:45:04.332Z,25.83
2019-05-02T13:47:32.531Z,24.10
2019-05-02T13:50:01.674Z,23.00
2019-05-02T13:52:29.102Z,23.37
2019-05-02T13:54:55.726Z,22.30
2019-05-02T13:57:23.434Z,21.20
2019-05-02T13:59:50.101Z,21.70
2019-05-02T14:02:37.602Z,21.27
2019-05-02T14:05:06.963Z,21.10
2019-05-02T14:07:33.668Z,21.43
2019-05-02T14:10:07.743Z,22.30
2019-05-02T14:12:42.634Z,23.47
2019-05-02T14:15:11.054Z,25.53
2019-05-02T14:17:38.429Z,23.93
2019-05-02T14:20:10.747Z,24.20
2019-05-02T14:22:34.489Z,24.43
2019-05-02T14:25:01.995Z,24.90
2019-05-02T14:27:32.065Z,24.60
2019-05-02T14:29:58.858Z,26.07
2019-05-02T14:32:26.576Z,24.67
2019-05-02T14:34:58.379Z,25.43
2019-05-02T14:37:25.125Z,24.47
2019-05-02T14:39:53.586Z,21.97
2019-05-02T14:42:25.017Z,22.00
2019-05-02T14:45:05.531Z,22.30
2019-05-02T14:47:19.482Z,22.27
2019-05-02T14:49:45.164Z,23.27
2019-05-02T14:52:12.679Z,23.37
2019-05-02T14:54:43.846Z,22.13
2019-05-02T14:57:12.398Z,22.63
2019-05-02T14:59:38.962Z,21.50
2019-05-02T15:02:07.867Z,21.87
2019-05-02T15:04:38.195Z,19.33
2019-05-02T15:07:03.907Z,20.37
2019-05-02T15:09:32.222Z,18.57
2019-05-02T15:11:58.798Z,20.43
2019-05-02T15:14:27.734Z,18.80
2019-05-02T15:16:58.227Z,19.70
2019-05-02T15:19:22.845Z,17.93
2019-05-02T15:21:52.512Z,18.70
2019-05-02T15:24:17.840Z,18.70
2019-05-02T15:26:44.577Z,18.30
2019-05-02T15:29:18.818Z,16.63
2019-05-02T15:31:43.915Z,18.30
2019-05-02T15:34:16.650Z,16.13
2019-05-02T15:36:45.853Z,16.90
2019-05-02T15:41:44.600Z,15.93
2019-05-02T15:44:09.401Z,18.80
2019-05-02T15:46:36.057Z,17.40
2019-05-02T15:49:05.734Z,18.80
2019-05-02T15:51:32.857Z,17.23
2019-05-02T15:54:05.933Z,16.50
2019-05-02T15:56:29.923Z,17.30
2019-05-02T15:58:57.963Z,17.20
2019-05-02T16:01:29.637Z,16.73
2019-05-02T16:03:58.887Z,14.90
2019-05-02T16:06:30.902Z,15.57
2019-05-02T16:08:55.237Z,14.33
2019-05-02T16:11:22.978Z,12.03
2019-05-02T16:13:55.499Z,10.20
2019-05-02T16:16:21.750Z,10.03
2019-05-02T16:18:48.466Z,10.10
2019-05-02T16:21:18.435Z,9.20
2019-05-02T16:24:11.300Z,7.30
2019-05-02T16:26:35.273Z,7.77
2019-05-02T16:29:02.844Z,6.13
2019-05-02T16:31:31.572Z,5.87
2019-05-02T16:33:58.280Z,6.70
2019-05-02T16:36:32.867Z,5.77
2019-05-02T16:38:53.378Z,5.67
2019-05-02T16:41:21.773Z,6.60
2019-05-02T16:43:48.794Z,6.30
2019-05-02T16:46:15.443Z,7.30
2019-05-02T16:48:43.138Z,7.60
2019-05-02T16:51:27.692Z,7.27
2019-05-02T16:53:38.067Z,8.60
2019-05-02T16:56:07.065Z,8.60
2019-05-02T16:58:33.726Z,10.83
2019-05-02T17:01:00.732Z,10.20
2019-05-02T17:03:27.469Z,10.03
2019-05-02T17:05:54.905Z,9.47
2019-05-02T17:08:32.727Z,10.03
2019-05-02T17:11:03.827Z,5.40
2019-05-02T17:13:34.222Z,4.93
2019-05-02T17:15:58.746Z,2.83
2019-05-02T17:18:25.282Z,2.70
2019-05-02T17:20:55.000Z,1.30
2019-05-02T17:23:22.146Z,1.40
2019-05-02T17:25:48.512Z,1.10
2019-05-02T17:28:15.088Z,1.30
2019-05-02T17:30:43.111Z,1.03
2019-05-02T17:33:12.809Z,1.10
2019-05-02T17:35:41.651Z,1.40
2019-05-02T17:38:07.389Z,1.10
2019-05-02T17:40:35.623Z,1.50
2019-05-02T17:43:06.739Z,1.30
2019-05-02T17:45:33.623Z,1.63
2019-05-02T17:48:01.190Z,2.00
2019-05-02T17:50:35.807Z,2.30
2019-05-02T17:53:06.179Z,2.00
2019-05-02T17:55:40.139Z,2.10
2019-05-02T17:58:04.604Z,2.50
2019-05-02T18:00:33.359Z,3.23
2019-05-02T18:03:00.120Z,3.27
2019-05-02T18:05:31.366Z,2.80
2019-05-02T18:07:55.017Z,2.67
2019-05-02T18:10:24.446Z,3.17
2019-05-02T18:12:58.517Z,3.10
2019-05-02T18:15:18.657Z,3.90
2019-05-02T18:17:45.229Z,3.57
2019-05-02T18:20:12.526Z,3.50
2019-05-02T18:22:39.906Z,3.70
2019-05-02T18:25:08.043Z,3.10
2019-05-02T18:27:34.624Z,3.70
2019-05-02T18:30:02.242Z,3.17
2019-05-02T18:32:30.951Z,4.20
2019-05-02T18:35:02.470Z,4.07
2019-05-02T18:37:26.145Z,3.80
2019-05-02T18:39:55.868Z,4.60
2019-05-02T18:42:25.394Z,4.37
2019-05-02T18:44:52.986Z,4.47
2019-05-02T18:47:20.315Z,4.07
2019-05-02T18:49:46.657Z,4.60
2019-05-02T18:52:13.329Z,5.17
2019-05-02T18:54:43.942Z,4.37
2019-05-02T18:57:08.489Z,5.33
2019-05-02T18:59:35.182Z,4.83
2019-05-02T19:02:02.183Z,5.20
2019-05-02T19:04:35.289Z,5.13
2019-05-02T19:06:57.429Z,5.00
2019-05-02T19:09:29.825Z,5.50
2019-05-02T19:12:04.816Z,5.47
2019-05-02T19:14:25.953Z,5.20
2019-05-02T19:16:52.100Z,4.57
2019-05-02T19:19:19.659Z,5.27
2019-05-02T19:21:48.081Z,5.40
2019-05-02T19:24:14.762Z,5.90
2019-05-02T19:26:49.044Z,5.03
2019-05-02T19:29:15.719Z,6.40
2019-05-02T19:31:46.034Z,5.30
2019-05-02T19:34:11.967Z,5.57
2019-05-02T19:36:41.629Z,5.50
2019-05-02T19:39:09.842Z,5.43
2019-05-02T19:41:39.056Z,4.87
2019-05-02T19:44:05.171Z,5.87
2019-05-02T19:46:38.569Z,5.00
2019-05-02T19:49:02.137Z,4.80
2019-05-02T19:51:31.694Z,5.10
2019-05-02T19:54:01.858Z,5.30
2019-05-02T19:56:33.370Z,5.37
2019-05-02T19:58:57.330Z,4.73
2019-05-02T20:01:26.558Z,4.97
2019-05-02T20:03:56.814Z,4.80
2019-05-02T20:06:22.072Z,5.43
2019-05-02T20:08:51.745Z,4.37
2019-05-02T20:11:17.522Z,5.20
2019-05-02T20:13:44.207Z,5.03
2019-05-02T20:16:22.549Z,5.20
2019-05-02T20:18:49.231Z,4.67
2019-05-02T20:21:27.700Z,5.33
2019-05-02T20:23:53.077Z,5.53
2019-05-02T20:26:22.144Z,5.33
2019-05-02T20:28:52.609Z,4.33
2019-05-02T20:31:21.660Z,3.93
2019-05-02T20:33:48.320Z,3.70
2019-05-02T20:36:16.001Z,4.10
2019-05-02T20:38:42.693Z,3.90
2019-05-02T20:41:10.281Z,4.40
2019-05-02T20:43:36.818Z,3.90
2019-05-02T20:46:04.228Z,4.00
2019-05-02T20:48:32.212Z,4.53
2019-05-02T20:50:58.964Z,3.67
2019-05-02T20:53:31.007Z,4.07
2019-05-02T20:55:53.869Z,3.87
2019-05-02T20:58:21.968Z,3.90
2019-05-02T21:00:49.287Z,4.30
2019-05-02T21:03:15.809Z,4.53
2019-05-02T21:05:47.098Z,4.60
2019-05-02T21:08:22.017Z,4.30
2019-05-02T21:11:01.659Z,4.13
2019-05-02T21:13:28.467Z,4.23
2019-05-02T21:15:55.346Z,4.13
2019-05-02T21:18:22.157Z,4.20
2019-05-02T21:20:49.430Z,3.80
2019-05-02T21:23:15.937Z,5.50
2019-05-02T21:25:42.624Z,3.90
2019-05-02T21:28:09.337Z,3.70
2019-05-02T21:30:35.973Z,4.70
2019-05-02T21:33:02.892Z,3.97
2019-05-02T21:35:31.781Z,4.10
2019-05-02T21:37:58.165Z,3.40
2019-05-02T21:40:25.867Z,2.87
2019-05-02T21:42:54.342Z,4.27
2019-05-02T21:45:22.270Z,3.87
2019-05-02T21:47:49.046Z,3.47
2019-05-02T21:50:17.962Z,2.83
2019-05-02T21:52:47.017Z,3.23
2019-05-02T21:55:21.633Z,3.60
2019-05-02T21:57:48.353Z,3.37
2019-05-02T22:00:22.257Z,3.30
2019-05-02T22:02:49.409Z,3.33
2019-05-02T22:05:16.583Z,3.40
2019-05-02T22:07:43.247Z,3.30
2019-05-02T22:10:12.020Z,3.70
2019-05-02T22:12:38.340Z,3.20
2019-05-02T22:15:05.372Z,3.60
2019-05-02T22:17:32.251Z,3.47
2019-05-02T22:19:58.974Z,2.57
2019-05-02T22:22:25.528Z,2.83
2019-05-02T22:24:52.980Z,3.27
2019-05-02T22:27:21.662Z,2.90
2019-05-02T22:29:48.050Z,3.50
2019-05-02T22:32:14.720Z,2.70
2019-05-02T22:34:42.613Z,3.20
2019-05-02T22:37:12.516Z,2.73
2019-05-02T22:39:47.963Z,3.00
2019-05-02T22:42:14.797Z,2.80
2019-05-02T22:44:41.759Z,3.00
2019-05-02T22:47:08.381Z,3.40
2019-05-02T22:49:35.953Z,3.30
2019-05-02T22:52:03.287Z,2.93
2019-05-02T22:54:32.898Z,3.60
2019-05-02T22:56:58.621Z,3.23
2019-05-02T22:59:25.383Z,2.50
2019-05-02T23:01:52.863Z,3.60
2019-05-02T23:04:23.265Z,3.03
2019-05-02T23:06:48.009Z,2.60
2019-05-02T23:09:16.600Z,2.90
2019-05-02T23:11:43.225Z,2.50
2019-05-02T23:14:09.980Z,2.90
2019-05-02T23:16:36.711Z,2.60
2019-05-02T23:19:04.989Z,3.37
2019-05-02T23:21:33.217Z,3.07
2019-05-02T23:24:02.986Z,3.07
2019-05-02T23:26:34.213Z,2.57
2019-05-02T23:29:02.725Z,3.80
2019-05-02T23:31:29.460Z,2.80
2019-05-02T23:33:59.265Z,3.00
2019-05-02T23:36:32.474Z,4.00
2019-05-02T23:39:01.681Z,2.97
2019-05-02T23:41:28.243Z,3.33
2019-05-02T23:43:54.879Z,2.90
2019-05-02T23:46:22.337Z,2.80
2019-05-02T23:48:48.984Z,2.70
2019-05-02T23:51:15.585Z,2.83
2019-05-02T23:53:42.421Z,2.97
2019-05-02T23:56:08.976Z,3.27
2019-05-02T23:58:35.629Z,2.87
